Time;durP1;ratioP1;P1;durP2;ratioP2;P2;SDS_P1;SDS_P2;PMS_P1;PMS_P2;Temp;Humidity;BMP_temperature;BMP_pressure;BME280_temperature;BME280_humidity;BME280_pressure;Samples;Min_cycle;Max_cycle;Signal;HPM_P1;HPM_P2
2023/09/30 00:00:52;;;;;;;16.48;6.45;;;;;;;15.80;73.77;95265.78;5050672;28;20586;-70
2023/09/30 00:03:18;;;;;;;12.63;6.30;;;;;;;15.83;73.76;95267.94;5052078;28;20175;-70
2023/09/30 00:05:43;;;;;;;13.98;6.30;;;;;;;15.82;74.01;95260.25;5052130;28;20175;-70
2023/09/30 00:08:09;;;;;;;14.57;6.07;;;;;;;15.82;74.19;95258.41;5051818;28;20179;-70
2023/09/30 00:10:34;;;;;;;15.02;5.60;;;;;;;15.79;73.53;95264.16;5051650;28;20201;-70
2023/09/30 00:12:59;;;;;;;13.70;6.05;;;;;;;15.75;74.08;95263.00;5050635;28;20832;-70
2023/09/30 00:15:25;;;;;;;9.80;6.80;;;;;;;15.83;74.28;95259.19;5051528;28;20717;-70
2023/09/30 00:17:50;;;;;;;10.25;6.15;;;;;;;15.91;74.04;95256.19;5051340;28;20171;-70
2023/09/30 00:20:17;;;;;;;13.55;5.93;;;;;;;16.00;73.56;95268.03;5051717;28;20205;-70
2023/09/30 00:22:42;;;;;;;11.75;6.60;;;;;;;16.03;73.02;95253.50;5033294;28;20241;-70
2023/09/30 00:25:08;;;;;;;8.77;5.63;;;;;;;16.11;72.88;95258.44;5051585;28;20258;-70
2023/09/30 00:27:33;;;;;;;10.10;5.63;;;;;;;16.01;72.80;95236.97;5051300;28;20571;-70
2023/09/30 00:29:59;;;;;;;10.65;5.20;;;;;;;16.17;73.08;95262.84;5051423;28;20270;-70
2023/09/30 00:32:24;;;;;;;14.23;5.95;;;;;;;16.05;72.91;95246.91;5051248;28;20230;-70
2023/09/30 00:34:51;;;;;;;14.63;5.53;;;;;;;16.19;72.65;95250.91;5051462;28;20178;-70
2023/09/30 00:37:18;;;;;;;16.13;6.00;;;;;;;16.19;72.41;95250.91;5051392;28;20229;-70
2023/09/30 00:39:44;;;;;;;11.23;6.03;;;;;;;16.16;72.34;95240.78;5051236;28;20182;-70
2023/09/30 00:42:10;;;;;;;12.82;5.57;;;;;;;16.21;71.88;95254.13;5051119;28;20439;-70
2023/09/30 00:44:35;;;;;;;11.85;5.35;;;;;;;16.13;72.45;95256.38;5050298;28;20419;-70
2023/09/30 00:47:01;;;;;;;13.43;5.45;;;;;;;16.20;72.55;95257.03;5051310;28;20975;-70
2023/09/30 00:49:28;;;;;;;14.05;6.03;;;;;;;16.29;72.92;95254.81;5051065;28;20191;-70
2023/09/30 00:51:54;;;;;;;9.23;5.47;;;;;;;16.32;72.88;95254.34;5051074;28;20207;-70
2023/09/30 00:54:22;;;;;;;12.23;5.28;;;;;;;16.37;72.52;95251.78;5051067;28;20655;-70
2023/09/30 00:56:50;;;;;;;11.10;5.47;;;;;;;16.40;72.37;95251.31;5050902;28;20731;-70
2023/09/30 00:59:16;;;;;;;10.70;5.15;;;;;;;16.35;72.32;95240.56;5050891;28;20179;-70
2023/09/30 01:01:43;;;;;;;8.85;5.82;;;;;;;16.41;72.77;95250.28;5050854;28;20201;-70
2023/09/30 01:04:10;;;;;;;11.70;5.57;;;;;;;16.43;72.72;95248.97;5050887;28;20190;-70
2023/09/30 01:06:36;;;;;;;9.40;5.38;;;;;;;16.43;72.85;95250.84;5050838;28;20181;-70
2023/09/30 01:09:01;;;;;;;18.33;5.45;;;;;;;16.34;73.02;95231.00;5050876;28;20266;-70
2023/09/30 01:11:27;;;;;;;9.27;5.20;;;;;;;16.40;73.27;95243.34;5050592;28;20620;-70
2023/09/30 01:13:52;;;;;;;9.82;5.43;;;;;;;16.39;72.79;95241.72;5050530;28;20175;-70
2023/09/30 01:16:17;;;;;;;17.33;5.88;;;;;;;16.28;73.02;95221.31;5050283;28;20620;-70
2023/09/30 01:18:43;;;;;;;14.20;5.57;;;;;;;16.34;73.20;95239.78;5050657;28;20186;-70
2023/09/30 01:21:09;;;;;;;11.70;5.35;;;;;;;16.35;73.32;95240.56;5050540;28;20206;-70
2023/09/30 01:23:35;;;;;;;11.40;5.25;;;;;;;16.30;73.51;95235.97;5050508;28;20205;-70
2023/09/30 01:26:06;;;;;;;12.32;5.95;;;;;;;16.28;73.74;95234.59;5050444;28;20265;-70
2023/09/30 01:28:32;;;;;;;10.30;5.03;;;;;;;16.21;74.10;95226.75;5050440;28;20175;-70
2023/09/30 01:30:58;;;;;;;9.32;5.15;;;;;;;16.33;73.85;95245.34;5050430;28;20178;-70
2023/09/30 01:33:23;;;;;;;7.07;4.60;;;;;;;16.29;73.89;95242.34;5050219;28;20219;-70
2023/09/30 01:35:49;;;;;;;9.38;5.15;;;;;;;16.30;73.43;95240.47;5050430;28;20179;-70
2023/09/30 01:38:14;;;;;;;11.95;6.30;;;;;;;16.27;73.64;95235.63;5050350;28;20190;-69
2023/09/30 01:40:40;;;;;;;11.48;5.53;;;;;;;16.24;73.98;95234.28;5050390;28;20187;-70
2023/09/30 01:43:05;;;;;;;16.90;5.72;;;;;;;16.25;74.42;95246.53;5050116;28;20272;-70
2023/09/30 01:45:30;;;;;;;12.65;5.35;;;;;;;16.26;74.41;95239.34;5050206;28;20206;-69
2023/09/30 01:47:56;;;;;;;14.00;5.32;;;;;;;16.30;74.25;95240.47;5050481;28;20183;-69
2023/09/30 01:50:21;;;;;;;13.25;5.45;;;;;;;16.30;74.18;95235.16;5050182;28;20186;-70
2023/09/30 01:52:47;;;;;;;13.50;5.30;;;;;;;16.32;74.26;95243.72;5032235;28;20178;-69
2023/09/30 01:55:12;;;;;;;13.18;5.68;;;;;;;16.31;74.20;95242.09;5050257;28;20190;-70
2023/09/30 01:57:38;;;;;;;10.05;4.88;;;;;;;16.29;74.12;95237.03;5049886;28;20266;-70
2023/09/30 02:00:04;;;;;;;10.90;5.63;;;;;;;16.28;74.15;95234.59;5050053;28;20556;-69
2023/09/30 02:02:30;;;;;;;11.98;5.30;;;;;;;16.25;73.64;95233.25;5048730;28;20647;-69
2023/09/30 02:04:56;;;;;;;9.80;5.18;;;;;;;16.25;73.68;95235.09;5049963;28;20179;-69
2023/09/30 02:07:22;;;;;;;13.10;5.15;;;;;;;16.23;74.05;95232.66;5050004;28;20182;-69
2023/09/30 02:09:48;;;;;;;11.05;5.38;;;;;;;16.23;74.01;95233.47;5049934;28;20170;-69
2023/09/30 02:12:13;;;;;;;10.38;5.45;;;;;;;16.20;73.88;95231.28;5031879;28;20258;-69
2023/09/30 02:14:39;;;;;;;16.20;7.00;;;;;;;16.18;73.68;95233.34;5049837;28;20321;-69
2023/09/30 02:17:04;;;;;;;11.98;6.30;;;;;;;16.06;73.59;95211.34;5049775;28;20179;-70
2023/09/30 02:19:31;;;;;;;11.07;7.03;;;;;;;16.11;73.79;95232.69;5049966;28;20175;-69
2023/09/30 02:21:57;;;;;;;16.40;7.25;;;;;;;16.04;73.86;95229.38;5049833;28;20244;-69
2023/09/30 02:24:23;;;;;;;17.65;8.27;;;;;;;15.99;73.99;95234.59;5052761;28;20636;-70
2023/09/30 02:26:48;;;;;;;14.60;7.38;;;;;;;15.91;74.08;95237.59;5054021;28;20186;-69
2023/09/30 02:29:14;;;;;;;22.55;8.00;;;;;;;15.84;74.49;95232.41;5054033;28;20214;-70
2023/09/30 02:31:41;;;;;;;15.50;8.38;;;;;;;15.79;74.36;95237.63;5053932;28;20183;-70
2023/09/30 02:34:06;;;;;;;16.02;8.25;;;;;;;15.75;74.38;95233.00;5053501;28;20781;-69
2023/09/30 02:36:33;;;;;;;16.60;9.38;;;;;;;15.68;74.46;95238.44;5053783;28;20305;-70
2023/09/30 02:39:00;;;;;;;15.85;10.43;;;;;;;15.64;74.11;95231.19;5052660;28;20493;-69
2023/09/30 02:41:26;;;;;;;21.10;9.60;;;;;;;15.59;74.44;95231.06;5053466;28;20245;-70
2023/09/30 02:43:51;;;;;;;20.77;9.18;;;;;;;15.59;74.01;95233.72;5053459;28;20202;-69
2023/09/30 02:46:16;;;;;;;15.90;8.40;;;;;;;15.56;74.30;95235.00;5053429;28;20175;-69
2023/09/30 02:48:42;;;;;;;13.32;8.30;;;;;;;15.51;74.16;95228.72;5053448;28;20186;-69
2023/09/30 02:51:11;;;;;;;19.58;8.23;;;;;;;15.49;74.06;95228.94;5053365;28;20175;-69
2023/09/30 02:53:36;;;;;;;14.18;8.52;;;;;;;15.45;74.25;95235.78;5053222;28;20186;-70
2023/09/30 02:56:04;;;;;;;12.90;8.48;;;;;;;15.36;74.17;95235.31;5052976;28;20186;-69
2023/09/30 02:58:29;;;;;;;17.10;9.02;;;;;;;15.21;74.76;95237.63;5053160;28;20569;-69
2023/09/30 03:00:55;;;;;;;15.95;8.63;;;;;;;15.20;75.13;95236.00;5053052;28;20171;-69
2023/09/30 03:03:21;;;;;;;23.33;9.23;;;;;;;15.16;75.08;95232.19;5052885;28;20423;-69
2023/09/30 03:05:49;;;;;;;22.10;9.00;;;;;;;15.09;75.02;95234.16;5035300;28;20591;-69
2023/09/30 03:08:15;;;;;;;20.38;10.32;;;;;;;15.13;75.39;95242.47;5035297;28;20176;-69
2023/09/30 03:10:41;;;;;;;19.95;8.88;;;;;;;15.11;75.24;95237.38;5053079;28;20572;-70
2023/09/30 03:13:08;;;;;;;19.17;8.18;;;;;;;15.05;75.42;95243.56;5052784;28;20175;-69
2023/09/30 03:15:35;;;;;;;16.70;9.07;;;;;;;15.05;75.53;95232.97;5052901;28;20183;-69
2023/09/30 03:18:00;;;;;;;17.13;9.15;;;;;;;14.93;75.80;95219.72;5052862;28;20178;-70
2023/09/30 03:20:26;;;;;;;17.00;9.63;;;;;;;15.00;75.84;95227.56;5052945;28;20171;-69
2023/09/30 03:22:52;;;;;;;13.75;8.80;;;;;;;14.94;76.07;95231.13;5052604;28;20231;-69
2023/09/30 03:25:20;;;;;;;17.25;7.65;;;;;;;14.91;76.60;95231.56;5052787;28;20197;-69
2023/09/30 03:27:46;;;;;;;20.25;8.57;;;;;;;14.87;76.57;95233.91;5052757;28;20202;-69
2023/09/30 03:30:13;;;;;;;13.57;8.03;;;;;;;14.69;77.17;95212.75;5052531;28;20171;-70
2023/09/30 03:32:39;;;;;;;16.10;9.65;;;;;;;14.75;77.44;95233.06;5052342;28;20214;-69
2023/09/30 03:35:16;;;;;;;16.58;9.15;;;;;;;14.68;77.49;95235.81;5052429;28;20175;-69
2023/09/30 03:37:42;;;;;;;13.35;7.75;;;;;;;14.65;77.55;95236.25;5052460;28;20241;-69
2023/09/30 03:40:19;;;;;;;13.73;7.47;;;;;;;14.60;77.99;95232.66;5052618;28;20267;-69
2023/09/30 03:42:45;;;;;;;14.10;7.68;;;;;;;14.60;77.96;95230.84;5052625;28;20201;-69
2023/09/30 03:45:13;;;;;;;12.73;7.73;;;;;;;14.48;78.22;95210.63;5052654;28;21046;-69
2023/09/30 03:47:40;;;;;;;14.20;7.30;;;;;;;14.56;78.09;95221.72;5052568;28;20183;-69
2023/09/30 03:50:12;;;;;;;17.83;8.23;;;;;;;14.56;78.43;95229.66;5052573;28;20183;-69
2023/09/30 03:52:38;;;;;;;16.77;7.03;;;;;;;14.54;78.54;95225.59;5052271;28;20225;-69
2023/09/30 03:55:05;;;;;;;12.68;8.25;;;;;;;14.41;78.74;95208.06;5052247;28;20186;-69
2023/09/30 03:57:33;;;;;;;11.97;7.50;;;;;;;14.50;78.55;95224.47;5052024;28;20179;-69
2023/09/30 04:00:00;;;;;;;14.93;6.80;;;;;;;14.34;78.57;95205.50;5052103;28;20201;-69
2023/09/30 04:02:25;;;;;;;14.75;6.97;;;;;;;14.39;78.82;95231.31;5051837;28;20199;-69
2023/09/30 04:04:53;;;;;;;17.17;7.57;;;;;;;14.35;78.99;95222.19;5051830;28;20682;-69
2023/09/30 04:07:18;;;;;;;22.13;7.83;;;;;;;14.32;79.46;95228.75;5051847;28;20179;-69
2023/09/30 04:09:44;;;;;;;10.10;7.33;;;;;;;14.27;79.27;95225.16;5051676;28;20175;-69
2023/09/30 04:12:09;;;;;;;12.87;8.43;;;;;;;14.28;79.53;95232.03;5051704;28;20720;-69
2023/09/30 04:14:34;;;;;;;17.23;8.00;;;;;;;14.25;79.41;95237.81;5051712;28;20237;-69
2023/09/30 04:17:00;;;;;;;20.23;7.47;;;;;;;14.20;79.49;95240.31;5051860;28;20186;-69
2023/09/30 04:19:25;;;;;;;15.63;7.70;;;;;;;14.17;79.61;95235.47;5051591;28;20564;-69
2023/09/30 04:21:50;;;;;;;20.30;11.13;;;;;;;14.16;79.68;95234.66;5051205;28;20242;-69
2023/09/30 04:24:18;;;;;;;21.07;11.77;;;;;;;14.16;79.60;95236.50;5051640;28;20232;-69
2023/09/30 04:26:44;;;;;;;24.50;11.53;;;;;;;14.13;79.31;95239.59;5051630;28;20617;-69
2023/09/30 04:29:10;;;;;;;21.60;11.57;;;;;;;14.13;79.52;95248.34;5050870;28;20249;-69
2023/09/30 04:31:38;;;;;;;22.23;12.17;;;;;;;14.12;79.58;95248.56;5050807;28;20564;-69
2023/09/30 04:34:04;;;;;;;50.67;13.83;;;;;;;14.13;79.29;95258.13;5050558;28;20250;-69
2023/09/30 04:36:30;;;;;;;45.97;14.13;;;;;;;14.13;79.11;95245.69;5051193;28;20714;-69
2023/09/30 04:38:56;;;;;;;53.27;12.80;;;;;;;14.06;79.20;95236.22;5050978;28;20262;-69
2023/09/30 04:41:21;;;;;;;31.92;12.90;;;;;;;14.15;79.22;95256.88;5051006;28;20191;-70
2023/09/30 04:43:47;;;;;;;19.27;11.02;;;;;;;14.18;78.97;95252.97;5050925;28;20209;-70
2023/09/30 04:46:13;;;;;;;22.33;12.40;;;;;;;14.20;79.11;95253.53;5050152;28;20225;-69
2023/09/30 04:48:39;;;;;;;22.92;10.73;;;;;;;14.23;79.01;95266.34;5050594;28;20178;-69
2023/09/30 04:51:08;;;;;;;23.27;10.73;;;;;;;14.24;79.00;95262.66;5050413;28;20668;-69
2023/09/30 04:53:33;;;;;;;25.15;10.85;;;;;;;14.28;78.96;95263.81;5050800;28;20229;-69
2023/09/30 04:55:59;;;;;;;24.20;11.83;;;;;;;14.32;78.23;95262.34;5051157;28;20171;-69
2023/09/30 04:58:25;;;;;;;22.87;9.07;;;;;;;14.32;78.24;95265.00;5051158;28;20702;-69
2023/09/30 05:00:50;;;;;;;23.02;10.68;;;;;;;14.39;78.39;95265.75;5050686;28;20186;-69
2023/09/30 05:03:16;;;;;;;36.57;9.70;;;;;;;14.46;78.13;95255.88;5050709;28;20198;-69
2023/09/30 05:05:41;;;;;;;17.80;7.60;;;;;;;14.80;77.36;95250.91;5050448;28;20250;-69
2023/09/30 05:08:07;;;;;;;20.52;9.63;;;;;;;15.29;75.80;95265.66;5050846;28;20181;-69
2023/09/30 05:10:33;;;;;;;27.20;8.77;;;;;;;15.76;74.01;95277.88;5050569;28;20539;-69
2023/09/30 05:12:59;;;;;;;34.35;9.35;;;;;;;16.20;72.54;95283.59;5050893;28;20171;-69
2023/09/30 05:15:25;;;;;;;21.67;8.85;;;;;;;16.53;70.73;95286.38;5050403;28;20248;-69
2023/09/30 05:17:51;;;;;;;28.60;8.50;;;;;;;16.82;69.48;95284.56;5050081;28;20205;-70
2023/09/30 05:20:17;;;;;;;24.58;8.77;;;;;;;16.96;68.79;95272.56;5050452;28;20308;-70
2023/09/30 05:22:45;;;;;;;37.58;9.45;;;;;;;17.18;68.21;95272.69;5050087;28;20198;-69
2023/09/30 05:25:12;;;;;;;26.95;9.20;;;;;;;17.37;67.56;95267.13;5050626;28;20190;-70
2023/09/30 05:27:37;;;;;;;18.98;7.32;;;;;;;17.65;66.49;95288.31;5050744;28;20179;-70
2023/09/30 05:30:07;;;;;;;20.42;8.57;;;;;;;17.84;66.42;95286.19;5050574;28;20163;-70
2023/09/30 05:32:34;;;;;;;20.77;7.88;;;;;;;18.04;65.59;95289.97;5050391;28;20233;-70
2023/09/30 05:35:02;;;;;;;19.40;7.97;;;;;;;18.25;64.82;95285.69;5050539;28;20232;-70
2023/09/30 05:37:28;;;;;;;18.42;8.57;;;;;;;18.45;64.46;95293.13;5050352;28;20526;-70
2023/09/30 05:39:53;;;;;;;20.75;7.30;;;;;;;18.61;63.95;95299.47;5032280;28;20236;-70
2023/09/30 05:42:19;;;;;;;19.15;8.40;;;;;;;18.82;62.87;95312.00;5050007;28;20597;-70
2023/09/30 05:44:45;;;;;;;20.70;9.52;;;;;;;18.89;62.55;95283.25;5050032;28;20175;-70
2023/09/30 05:47:12;;;;;;;18.77;8.70;;;;;;;19.11;60.37;95307.22;5050165;28;20171;-70
2023/09/30 05:49:37;;;;;;;20.83;9.13;;;;;;;19.28;60.41;95309.78;5050151;28;20179;-69
2023/09/30 05:52:03;;;;;;;22.95;8.25;;;;;;;19.44;60.13;95308.84;5050180;28;20170;-70
2023/09/30 05:54:28;;;;;;;17.73;8.20;;;;;;;19.56;59.59;95293.47;5050197;28;20175;-70
2023/09/30 05:56:54;;;;;;;19.08;7.32;;;;;;;19.75;59.01;95299.22;5049722;28;20291;-70
2023/09/30 05:59:20;;;;;;;16.45;8.70;;;;;;;19.92;58.92;95314.03;5049242;28;20202;-69
2023/09/30 06:01:46;;;;;;;16.30;6.88;;;;;;;19.99;58.23;95311.13;5050147;28;20695;-69
2023/09/30 06:04:12;;;;;;;13.30;6.32;;;;;;;20.05;57.98;95315.44;5049909;28;20198;-70
2023/09/30 06:06:38;;;;;;;18.63;6.68;;;;;;;20.20;57.93;95314.72;5049792;28;20190;-69
2023/09/30 06:09:04;;;;;;;16.67;6.78;;;;;;;20.29;57.63;95310.50;5050128;28;20183;-69
2023/09/30 06:11:29;;;;;;;19.17;5.50;;;;;;;20.39;56.57;95320.47;5050248;28;20177;-69
2023/09/30 06:13:55;;;;;;;12.05;5.30;;;;;;;20.49;56.23;95321.34;5050016;28;20175;-69
2023/09/30 06:16:20;;;;;;;16.38;7.30;;;;;;;20.62;56.35;95325.38;5050104;28;20194;-69
2023/09/30 06:18:46;;;;;;;22.95;7.03;;;;;;;20.75;56.27;95322.22;5050027;28;20684;-69
2023/09/30 06:21:14;;;;;;;9.90;5.75;;;;;;;20.86;55.20;95323.84;5049724;28;20191;-69
2023/09/30 06:23:40;;;;;;;20.80;7.03;;;;;;;20.95;55.02;95318.78;5049724;28;20266;-69
2023/09/30 06:26:05;;;;;;;17.50;5.88;;;;;;;20.99;54.90;95306.50;5049868;28;20258;-69
2023/09/30 06:28:32;;;;;;;25.33;6.80;;;;;;;21.14;54.51;95314.56;5049956;28;20662;-69
2023/09/30 06:30:58;;;;;;;18.42;7.28;;;;;;;21.25;54.61;95321.56;5049784;28;20171;-69
2023/09/30 06:33:23;;;;;;;11.25;6.63;;;;;;;21.41;54.26;95328.56;5049692;28;20211;-69
2023/09/30 06:35:52;;;;;;;15.93;6.32;;;;;;;21.66;54.30;95335.00;5049685;28;20171;-69
2023/09/30 06:38:21;;;;;;;18.67;6.20;;;;;;;21.75;53.28;95334.19;5049863;28;20198;-69
2023/09/30 06:40:47;;;;;;;21.25;6.93;;;;;;;21.98;53.04;95332.03;5049655;28;20202;-69
2023/09/30 06:43:15;;;;;;;9.43;6.00;;;;;;;22.12;51.71;95328.53;5049718;28;20175;-69
2023/09/30 06:45:41;;;;;;;14.63;6.80;;;;;;;22.36;51.35;95331.44;5049631;28;20182;-69
2023/09/30 06:48:12;;;;;;;10.40;5.70;;;;;;;22.39;50.51;95306.75;5049688;28;20182;-69
2023/09/30 06:50:44;;;;;;;14.60;5.72;;;;;;;22.73;51.30;95332.94;5049726;28;20167;-69
2023/09/30 06:53:10;;;;;;;13.82;6.00;;;;;;;22.99;50.02;95331.75;5049591;28;20175;-69
2023/09/30 06:55:38;;;;;;;11.35;5.13;;;;;;;23.27;48.77;95332.91;5050246;28;20559;-69
2023/09/30 06:58:07;;;;;;;15.70;6.10;;;;;;;23.52;47.37;95337.38;5049622;28;20187;-70
2023/09/30 07:00:33;;;;;;;14.60;7.53;;;;;;;23.68;47.57;95339.66;5049647;28;20194;-70
2023/09/30 07:02:59;;;;;;;18.30;8.82;;;;;;;23.89;46.08;95342.97;5049536;28;20203;-70
2023/09/30 07:05:24;;;;;;;38.80;10.25;;;;;;;24.03;46.73;95335.06;5049347;28;20656;-70
2023/09/30 07:07:51;;;;;;;12.73;7.78;;;;;;;24.31;46.87;95344.22;5049798;28;20256;-70
2023/09/30 07:10:16;;;;;;;22.40;7.85;;;;;;;24.56;46.66;95343.94;5052461;28;20933;-70
2023/09/30 07:12:42;;;;;;;14.88;6.07;;;;;;;24.96;45.38;95347.28;5053056;28;20171;-70
2023/09/30 07:15:08;;;;;;;10.77;4.55;;;;;;;25.34;43.60;95342.75;5052894;28;20187;-70
2023/09/30 07:17:34;;;;;;;16.88;4.50;;;;;;;25.65;42.86;95345.81;5052645;28;20179;-70
2023/09/30 07:19:59;;;;;;;7.05;4.35;;;;;;;25.92;41.83;95341.31;5052898;28;20192;-70
2023/09/30 07:22:25;;;;;;;9.23;4.07;;;;;;;26.20;39.43;95344.88;5052881;28;20203;-70
2023/09/30 07:24:50;;;;;;;9.85;4.43;;;;;;;26.42;40.59;95338.03;5052607;28;20186;-70
2023/09/30 07:27:16;;;;;;;12.82;4.00;;;;;;;26.66;38.33;95350.25;5052580;28;20179;-70
2023/09/30 07:29:41;;;;;;;7.68;4.15;;;;;;;26.72;38.28;95342.06;5052412;28;20203;-70
2023/09/30 07:32:08;;;;;;;11.18;4.47;;;;;;;26.86;38.17;95348.25;5052587;28;20246;-70
2023/09/30 07:34:33;;;;;;;20.58;13.25;;;;;;;26.88;37.37;95351.47;5052683;28;20644;-70
2023/09/30 07:36:58;;;;;;;8.75;4.00;;;;;;;26.84;38.05;95348.56;5052192;28;20206;-70
2023/09/30 07:39:24;;;;;;;11.93;7.13;;;;;;;27.08;38.31;95351.06;5052248;28;20277;-70
2023/09/30 07:41:49;;;;;;;14.73;6.10;;;;;;;27.26;36.74;95347.41;5052290;28;20195;-70
2023/09/30 07:44:15;;;;;;;14.18;5.30;;;;;;;27.47;36.87;95345.06;5052161;28;20270;-70
2023/09/30 07:46:40;;;;;;;14.30;4.53;;;;;;;27.68;36.94;95331.88;5052696;28;20282;-69
2023/09/30 07:49:08;;;;;;;10.85;4.97;;;;;;;27.88;35.63;95344.94;5052172;28;20634;-68
2023/09/30 07:51:34;;;;;;;16.73;5.18;;;;;;;27.83;35.75;95347.78;5052278;28;20533;-68
2023/09/30 07:54:00;;;;;;;10.85;3.88;;;;;;;27.79;34.66;95330.53;5051696;28;20236;-68
2023/09/30 07:56:25;;;;;;;17.42;4.30;;;;;;;27.56;34.63;95347.88;5051379;28;20221;-68
2023/09/30 07:58:50;;;;;;;17.88;9.15;;;;;;;27.57;35.65;95347.59;5051287;28;20636;-68
2023/09/30 08:01:17;;;;;;;11.20;4.20;;;;;;;27.54;35.46;95345.47;5051003;28;20747;-68
2023/09/30 08:03:43;;;;;;;13.07;3.85;;;;;;;27.64;34.54;95342.53;5051360;28;20202;-68
2023/09/30 08:06:11;;;;;;;9.60;3.67;;;;;;;27.71;34.84;95344.81;5049938;28;20203;-67
2023/09/30 08:08:36;;;;;;;10.60;3.63;;;;;;;28.10;34.10;95346.84;5040636;28;20179;-68
2023/09/30 08:11:02;;;;;;;12.13;4.10;;;;;;;28.43;33.61;95356.31;5050963;28;20190;-68
2023/09/30 08:13:29;;;;;;;11.98;4.25;;;;;;;28.65;33.30;95344.59;5051098;28;20210;-68
2023/09/30 08:15:55;;;;;;;15.35;4.28;;;;;;;28.85;32.42;95346.78;5049903;28;20179;-67
2023/09/30 08:18:21;;;;;;;12.30;4.22;;;;;;;28.88;32.18;95340.75;5050328;28;20179;-68
2023/09/30 08:20:47;;;;;;;11.27;3.63;;;;;;;28.86;31.65;95353.81;5049102;28;20187;-68
2023/09/30 08:23:12;;;;;;;7.07;3.90;;;;;;;28.64;31.36;95345.72;5050447;28;20199;-67
2023/09/30 08:25:38;;;;;;;5.95;3.90;;;;;;;28.50;31.08;95345.81;5050573;28;20197;-68
2023/09/30 08:28:04;;;;;;;11.45;4.60;;;;;;;28.38;30.93;95342.06;5050836;28;20233;-67
2023/09/30 08:30:30;;;;;;;10.70;4.55;;;;;;;28.37;31.72;95346.69;5050834;28;20175;-67
2023/09/30 08:32:56;;;;;;;9.80;5.68;;;;;;;28.63;32.04;95338.69;5038695;28;20242;-67
2023/09/30 08:35:21;;;;;;;7.50;3.58;;;;;;;28.83;31.16;95345.50;5049300;28;20171;-67
2023/09/30 08:37:47;;;;;;;11.88;3.80;;;;;;;28.87;30.08;95343.75;5050046;28;20252;-67
2023/09/30 08:40:12;;;;;;;11.05;4.22;;;;;;;28.93;30.83;95347.91;5049580;28;20179;-68
2023/09/30 08:42:39;;;;;;;6.93;5.20;;;;;;;28.51;29.49;95328.44;5048905;28;20217;-69
2023/09/30 08:45:06;;;;;;;8.70;4.80;;;;;;;28.63;29.96;95337.91;5049805;28;20208;-69
2023/09/30 08:47:35;;;;;;;7.97;5.18;;;;;;;28.57;28.27;95339.94;5049585;28;20667;-69
2023/09/30 08:50:05;;;;;;;11.15;5.38;;;;;;;28.63;28.89;95325.13;5048946;28;20190;-69
2023/09/30 08:52:36;;;;;;;7.25;4.90;;;;;;;28.53;29.73;95328.94;5046423;28;20599;-69
2023/09/30 08:55:01;;;;;;;8.45;5.18;;;;;;;28.13;29.38;95330.78;5048640;28;20191;-69
2023/09/30 08:57:28;;;;;;;18.00;5.65;;;;;;;27.66;28.21;95315.19;5033075;28;20244;-69
2023/09/30 08:59:54;;;;;;;11.93;5.28;;;;;;;27.39;28.95;95311.44;5050194;28;20257;-69
2023/09/30 09:02:19;;;;;;;11.18;5.18;;;;;;;27.73;29.52;95332.59;5049310;28;20212;-69
2023/09/30 09:04:49;;;;;;;9.40;5.03;;;;;;;27.52;29.26;95319.81;5049413;28;21599;-69
2023/09/30 09:07:14;;;;;;;12.25;5.30;;;;;;;27.55;30.03;95298.38;5049344;28;20189;-69
2023/09/30 09:09:40;;;;;;;13.35;4.78;;;;;;;27.94;29.29;95318.53;5049604;28;20167;-69
2023/09/30 09:12:06;;;;;;;14.82;5.40;;;;;;;27.56;29.05;95320.84;5048802;28;20197;-69
2023/09/30 09:14:39;;;;;;;12.57;5.15;;;;;;;27.57;29.71;95309.72;5049623;28;20178;-69
2023/09/30 09:17:07;;;;;;;12.85;5.25;;;;;;;27.71;29.20;95313.16;5048429;28;20175;-69
2023/09/30 09:19:33;;;;;;;12.02;4.75;;;;;;;27.89;29.30;95315.97;5049111;28;20610;-69
2023/09/30 09:22:00;;;;;;;12.68;4.53;;;;;;;28.00;29.10;95320.03;5049333;28;20203;-69
2023/09/30 09:24:33;;;;;;;10.82;4.80;;;;;;;27.64;29.32;95301.97;5047104;28;20179;-69
2023/09/30 09:27:09;;;;;;;15.57;4.28;;;;;;;26.79;30.17;95323.53;5049088;28;20175;-69
2023/09/30 09:29:39;;;;;;;9.88;4.10;;;;;;;26.50;30.61;95313.84;5047780;28;20599;-69
2023/09/30 09:32:15;;;;;;;8.75;3.90;;;;;;;26.29;31.62;95310.72;5047715;28;20179;-69
2023/09/30 09:34:43;;;;;;;9.52;4.38;;;;;;;26.04;31.13;95304.94;5048607;28;20179;-69
2023/09/30 09:37:22;;;;;;;12.25;3.95;;;;;;;26.11;31.41;95306.19;5048697;28;20166;-69
2023/09/30 09:39:53;;;;;;;9.23;4.75;;;;;;;25.91;31.77;95314.63;5046617;28;20647;-69
2023/09/30 09:42:32;;;;;;;12.02;4.28;;;;;;;25.91;32.45;95301.94;5048484;28;20195;-69
2023/09/30 09:45:05;;;;;;;17.25;4.88;;;;;;;26.05;32.06;95299.25;5048236;28;20202;-69
2023/09/30 09:47:32;;;;;;;10.82;4.40;;;;;;;26.21;31.38;95297.06;5048299;28;20175;-69
2023/09/30 09:49:59;;;;;;;10.90;4.45;;;;;;;26.37;32.88;95295.75;5049780;28;20237;-69
2023/09/30 09:52:25;;;;;;;14.52;4.75;;;;;;;26.20;31.90;95292.78;5049309;28;20178;-69
2023/09/30 09:54:51;;;;;;;12.93;4.45;;;;;;;25.93;31.92;95296.25;5050213;28;20182;-68
2023/09/30 09:57:18;;;;;;;8.02;3.63;;;;;;;25.60;32.60;95290.03;5049965;28;20240;-68
2023/09/30 09:59:47;;;;;;;9.85;3.70;;;;;;;25.23;33.67;95287.38;5049891;28;20182;-68
2023/09/30 10:02:15;;;;;;;8.65;4.00;;;;;;;25.31;33.07;95279.41;5048113;28;20210;-68
2023/09/30 10:04:45;;;;;;;9.85;3.92;;;;;;;25.32;33.63;95283.72;5047667;28;20217;-68
2023/09/30 10:07:20;;;;;;;16.40;3.95;;;;;;;25.41;33.24;95286.56;5048184;28;20237;-69
2023/09/30 10:09:49;;;;;;;8.13;3.72;;;;;;;25.38;33.21;95270.94;5048495;28;20171;-69
2023/09/30 10:12:15;;;;;;;8.88;3.55;;;;;;;25.38;33.26;95269.06;5049163;28;20562;-68
2023/09/30 10:14:41;;;;;;;8.82;3.35;;;;;;;25.38;33.31;95266.34;5048127;28;20244;-68
2023/09/30 10:17:06;;;;;;;7.75;3.40;;;;;;;25.42;33.06;95278.19;5048617;28;20655;-69
2023/09/30 10:19:32;;;;;;;7.03;3.03;;;;;;;25.16;33.17;95260.78;5049618;28;20214;-69
2023/09/30 10:22:19;;;;;;;7.35;3.83;;;;;;;24.90;33.98;95265.72;5049639;28;20198;-68
2023/09/30 10:24:49;;;;;;;9.95;3.13;;;;;;;24.67;34.47;95269.22;5049892;28;20171;-68
2023/09/30 10:27:28;;;;;;;5.43;3.38;;;;;;;24.63;34.24;95260.16;5049683;28;20647;-68
2023/09/30 10:30:09;;;;;;;7.43;3.60;;;;;;;24.66;34.71;95240.69;5049371;28;20175;-69
2023/09/30 10:32:50;;;;;;;11.25;3.50;;;;;;;24.78;32.95;95254.53;5049946;28;20245;-68
2023/09/30 10:35:20;;;;;;;5.57;3.28;;;;;;;24.65;31.44;95261.44;5049498;28;20240;-68
2023/09/30 10:37:46;;;;;;;8.95;3.45;;;;;;;24.55;31.45;95247.31;5049754;28;20175;-68
2023/09/30 10:40:28;;;;;;;4.53;3.28;;;;;;;24.60;31.23;95255.31;5049555;28;20683;-68
2023/09/30 10:42:57;;;;;;;10.15;3.28;;;;;;;24.59;31.35;95243.75;5049252;28;20201;-68
2023/09/30 10:45:44;;;;;;;9.05;3.13;;;;;;;24.68;31.22;95242.00;5052232;28;20179;-68
2023/09/30 10:48:25;;;;;;;9.68;2.70;;;;;;;24.82;31.04;95253.66;5053260;28;20206;-68
2023/09/30 10:50:56;;;;;;;4.35;2.70;;;;;;;24.75;30.86;95239.75;5053238;28;20183;-69
2023/09/30 10:53:22;;;;;;;5.20;2.63;;;;;;;24.71;31.21;95233.38;5053298;28;20181;-70
2023/09/30 10:55:54;;;;;;;10.05;2.83;;;;;;;24.83;31.00;95232.91;5053320;28;20261;-69
2023/09/30 10:58:20;;;;;;;12.02;3.15;;;;;;;24.92;31.09;95233.91;5053071;28;20187;-69
2023/09/30 11:00:55;;;;;;;9.48;2.92;;;;;;;25.05;30.79;95237.78;5050767;28;20194;-69
2023/09/30 11:03:21;;;;;;;4.43;2.63;;;;;;;25.20;31.16;95232.13;5051127;28;20699;-69
2023/09/30 11:05:53;;;;;;;4.95;2.92;;;;;;;25.19;31.07;95231.34;5052956;28;20182;-68
2023/09/30 11:08:23;;;;;;;4.93;2.50;;;;;;;24.77;30.58;95226.00;5053056;28;20602;-68
2023/09/30 11:10:52;;;;;;;8.90;2.60;;;;;;;24.62;31.32;95210.88;5053114;28;20606;-68
2023/09/30 11:13:18;;;;;;;6.57;2.97;;;;;;;24.84;31.37;95221.06;5035119;28;20563;-68
2023/09/30 11:15:45;;;;;;;7.07;2.70;;;;;;;24.87;31.54;95228.56;5052822;28;20265;-70
2023/09/30 11:18:17;;;;;;;9.30;3.00;;;;;;;25.00;30.81;95224.34;5052711;28;20179;-68
2023/09/30 11:20:47;;;;;;;8.38;2.88;;;;;;;24.98;30.74;95213.09;5052857;28;20254;-70
2023/09/30 11:23:14;;;;;;;5.10;2.95;;;;;;;25.06;29.47;95218.63;5052418;28;20203;-70
2023/09/30 11:25:41;;;;;;;13.15;3.55;;;;;;;25.09;30.71;95219.91;5052753;28;20187;-70